createdAt,value
2024-01-15T00:00:02.884Z,0.00
2024-01-15T00:10:04.583Z,0.00
2024-01-15T00:20:01.160Z,0.00
2024-01-15T00:30:01.144Z,0.00
2024-01-15T00:40:01.006Z,0.00
2024-01-15T00:50:01.084Z,0.00
2024-01-15T01:00:03.748Z,0.00
2024-01-15T01:10:01.118Z,0.00
2024-01-15T01:20:01.343Z,0.00
2024-01-15T01:30:03.474Z,0.00
2024-01-15T01:40:00.240Z,0.00
2024-01-15T01:50:01.997Z,0.00
2024-01-15T02:00:01.856Z,0.00
2024-01-15T02:10:01.310Z,0.00
2024-01-15T02:20:01.320Z,0.00
2024-01-15T02:30:01.030Z,0.00
2024-01-15T02:40:01.025Z,0.00
2024-01-15T02:50:01.250Z,0.00
2024-01-15T03:00:01.568Z,0.00
2024-01-15T03:10:01.139Z,0.00
2024-01-15T03:20:01.227Z,0.00
2024-01-15T03:30:01.148Z,0.00
2024-01-15T03:40:01.105Z,0.00
2024-01-15T03:50:01.093Z,0.00
2024-01-15T04:00:01.042Z,0.00
2024-01-15T04:10:01.224Z,0.00
2024-01-15T04:20:03.548Z,0.00
2024-01-15T04:30:01.074Z,0.00
2024-01-15T04:40:01.119Z,0.00
2024-01-15T04:50:01.046Z,0.00
2024-01-15T05:00:01.649Z,0.00
2024-01-15T05:10:01.658Z,0.00
2024-01-15T05:20:01.587Z,0.00
2024-01-15T05:30:01.417Z,0.00
2024-01-15T05:40:01.337Z,0.00
2024-01-15T05:50:01.350Z,0.00
2024-01-15T06:00:01.914Z,0.00
2024-01-15T06:10:01.076Z,0.00
2024-01-15T06:20:01.155Z,0.00
2024-01-15T06:30:01.435Z,0.00
2024-01-15T06:40:01.032Z,0.83
2024-01-15T06:50:01.140Z,5.00
2024-01-15T07:00:00.316Z,11.67
2024-01-15T07:10:01.622Z,19.17
2024-01-15T07:20:02.032Z,28.33
2024-01-15T07:30:02.544Z,64.17
2024-01-15T07:40:01.455Z,136.67
2024-01-15T07:50:04.551Z,566.67
2024-01-15T08:00:00.249Z,375.83
2024-01-15T08:10:00.406Z,539.17
2024-01-15T08:20:03.629Z,335.83
2024-01-15T08:30:02.381Z,1091.67
2024-01-15T08:40:00.389Z,1520.00
2024-01-15T08:50:02.034Z,870.00
2024-01-15T09:00:01.159Z,379.17
2024-01-15T09:10:01.383Z,1067.50
2024-01-15T09:20:01.348Z,565.00
2024-01-15T09:30:01.295Z,1595.83
2024-01-15T09:40:01.491Z,984.17
2024-01-15T09:50:01.091Z,977.50
2024-01-15T10:00:00.211Z,1678.33
2024-01-15T10:10:02.664Z,2455.00
2024-01-15T10:20:01.752Z,1309.17
2024-01-15T10:30:01.270Z,2254.17
2024-01-15T10:40:02.520Z,2640.83
2024-01-15T10:50:01.479Z,2486.67
2024-01-15T11:00:01.525Z,2371.67
2024-01-15T11:10:02.212Z,4890.83
2024-01-15T11:20:02.324Z,2346.67
2024-01-15T11:30:02.239Z,1125.00
2024-01-15T11:40:01.032Z,1820.00
2024-01-15T11:50:01.149Z,1169.17
2024-01-15T12:00:00.251Z,585.00
2024-01-15T12:10:00.286Z,822.50
2024-01-15T12:20:01.315Z,955.00
2024-01-15T12:30:01.306Z,808.33
2024-01-15T12:40:01.574Z,995.00
2024-01-15T12:50:06.054Z,1670.00
2024-01-15T13:00:01.264Z,1656.67
2024-01-15T13:10:01.308Z,2690.83
2024-01-15T13:20:01.435Z,1968.33
2024-01-15T13:30:01.446Z,1173.33
2024-01-15T13:40:01.023Z,662.50
2024-01-15T13:50:02.865Z,587.50
2024-01-15T14:00:01.666Z,560.00
2024-01-15T14:10:01.454Z,301.67
2024-01-15T14:20:01.671Z,695.83
2024-01-15T14:30:01.970Z,597.50
2024-01-15T14:40:01.408Z,516.67
2024-01-15T15:00:01.300Z,100.00
2024-01-15T15:10:01.043Z,63.33
2024-01-15T15:20:01.665Z,30.83
2024-01-15T15:30:00.989Z,25.00
2024-01-15T15:40:01.849Z,5.00
2024-01-15T15:50:01.247Z,1.67
2024-01-15T16:00:00.227Z,0.00
2024-01-15T16:10:01.339Z,0.00
2024-01-15T16:23:04.352Z,0.00
2024-01-15T16:30:03.785Z,0.00
2024-01-15T16:40:01.074Z,0.00
2024-01-15T16:50:01.194Z,0.00
2024-01-15T17:00:01.079Z,0.00
2024-01-15T17:10:01.083Z,0.00
2024-01-15T17:20:02.893Z,0.00
2024-01-15T17:30:02.887Z,0.00
2024-01-15T17:40:03.165Z,0.00
2024-01-15T17:50:00.356Z,0.00
2024-01-15T18:00:01.277Z,0.00
2024-01-15T18:10:01.228Z,0.00
2024-01-15T18:20:01.409Z,0.00
2024-01-15T18:30:01.197Z,0.00
2024-01-15T18:40:01.796Z,0.00
2024-01-15T18:50:01.495Z,0.00
2024-01-15T19:00:02.180Z,0.00
2024-01-15T19:10:01.629Z,0.00
2024-01-15T19:20:01.186Z,0.00
2024-01-15T19:30:01.665Z,0.00
2024-01-15T19:40:01.159Z,0.00
2024-01-15T19:50:00.302Z,0.00
2024-01-15T20:00:00.260Z,0.00
2024-01-15T20:10:01.552Z,0.00
2024-01-15T20:20:01.511Z,0.00
2024-01-15T20:30:01.181Z,0.00
2024-01-15T20:40:02.486Z,0.00
2024-01-15T20:50:02.995Z,0.00
2024-01-15T21:00:01.357Z,0.00
2024-01-15T21:10:01.628Z,0.00
2024-01-15T21:20:01.201Z,0.00
2024-01-15T21:30:01.020Z,0.00
2024-01-15T21:40:01.152Z,0.00
2024-01-15T21:50:02.065Z,0.00
2024-01-15T22:00:00.229Z,0.00
2024-01-15T22:10:01.738Z,0.00
2024-01-15T22:20:00.401Z,0.00
2024-01-15T22:30:01.158Z,0.00
2024-01-15T22:40:03.007Z,0.00
2024-01-15T22:50:01.200Z,0.00
2024-01-15T23:00:02.151Z,0.00
2024-01-15T23:10:01.083Z,0.00
2024-01-15T23:20:01.308Z,0.00
2024-01-15T23:30:01.237Z,0.00
2024-01-15T23:40:01.790Z,0.00
2024-01-15T23:50:01.423Z,0.00
